Time;durP1;ratioP1;P1;durP2;ratioP2;P2;SDS_P1;SDS_P2;PMS_P1;PMS_P2;Temp;Humidity;BMP_temperature;BMP_pressure;BME280_temperature;BME280_humidity;BME280_pressure;Samples;Min_cycle;Max_cycle;Signal;HPM_P1;HPM_P2
2021/04/07 00:00:22;;;;;;;17.60;11.97;;;2.40;72.10;;;;;;4978771;28;20220;-88
2021/04/07 00:02:49;;;;;;;17.88;12.77;;;0.90;70.10;;;;;;4977546;28;20649;-89
2021/04/07 00:05:18;;;;;;;19.52;12.68;;;2.20;71.00;;;;;;4977596;28;20181;-89
2021/04/07 00:07:44;;;;;;;19.35;11.55;;;1.40;69.70;;;;;;4976707;28;20178;-89
2021/04/07 00:10:14;;;;;;;12.67;11.37;;;2.70;71.40;;;;;;4983451;28;20225;-89
2021/04/07 00:12:41;;;;;;;14.90;10.57;;;1.40;69.40;;;;;;4980965;28;20170;-89
2021/04/07 00:15:13;;;;;;;12.68;10.13;;;1.40;68.00;;;;;;4977830;28;20176;-89
2021/04/07 00:17:38;;;;;;;12.10;10.90;;;1.30;68.40;;;;;;4976353;28;20174;-89
2021/04/07 00:20:18;;;;;;;14.13;10.93;;;0.90;68.50;;;;;;4979650;28;20205;-89
2021/04/07 00:22:44;;;;;;;11.23;9.23;;;1.30;68.70;;;;;;4993122;28;20177;-88
2021/04/07 00:25:11;;;;;;;17.67;12.10;;;1.00;68.70;;;;;;4977507;28;20586;-88
2021/04/07 00:27:38;;;;;;;19.98;13.63;;;1.30;67.80;;;;;;4975342;28;20513;-89
2021/04/07 00:30:05;;;;;;;12.07;10.02;;;0.90;68.30;;;;;;4992832;28;20229;-89
2021/04/07 00:32:31;;;;;;;17.73;11.38;;;1.20;68.90;;;;;;4992515;28;20182;-89
2021/04/07 00:34:57;;;;;;;17.50;11.70;;;1.00;68.70;;;;;;4976236;28;20182;-88
2021/04/07 00:37:22;;;;;;;13.90;11.40;;;0.90;68.20;;;;;;4979762;28;20177;-89
2021/04/07 00:39:48;;;;;;;15.20;10.27;;;0.30;67.80;;;;;;4977471;28;20416;-89
2021/04/07 00:42:14;;;;;;;16.20;12.70;;;0.60;69.20;;;;;;4977562;28;20646;-90
2021/04/07 00:44:39;;;;;;;14.03;11.30;;;1.00;68.80;;;;;;4975963;28;20178;-89
2021/04/07 00:47:05;;;;;;;11.73;9.90;;;1.00;69.40;;;;;;4977522;28;20209;-89
2021/04/07 00:49:30;;;;;;;12.77;11.47;;;1.20;70.00;;;;;;4977621;28;20221;-90
2021/04/07 00:51:56;;;;;;;13.13;10.93;;;2.50;70.60;;;;;;4977606;28;20182;-89
2021/04/07 00:54:23;;;;;;;15.07;11.77;;;0.90;68.90;;;;;;4976697;28;20232;-89
2021/04/07 00:56:50;;;;;;;11.15;9.30;;;1.30;70.20;;;;;;4992183;28;20194;-90
2021/04/07 00:59:17;;;;;;;10.27;8.65;;;0.90;68.30;;;;;;4976015;28;20546;-90
2021/04/07 01:01:44;;;;;;;11.30;9.05;;;1.00;68.30;;;;;;4977615;28;20232;-88
2021/04/07 01:04:11;;;;;;;14.20;11.07;;;1.20;68.30;;;;;;4979260;28;20174;-89
2021/04/07 01:06:39;;;;;;;14.23;8.07;;;1.20;67.80;;;;;;4978003;28;20210;-88
2021/04/07 01:09:04;;;;;;;13.60;9.93;;;0.80;67.90;;;;;;4980394;28;20174;-88
2021/04/07 01:11:30;;;;;;;15.00;9.67;;;1.20;69.10;;;;;;4980011;28;20174;-89
2021/04/07 01:13:56;;;;;;;13.33;9.20;;;1.10;68.50;;;;;;4977165;28;20556;-88
2021/04/07 01:16:22;;;;;;;11.37;8.93;;;1.00;68.40;;;;;;4978093;28;20400;-88
2021/04/07 01:18:49;;;;;;;20.42;9.68;;;3.40;71.60;;;;;;4977330;28;20255;-88
2021/04/07 01:21:15;;;;;;;18.95;9.30;;;0.90;67.50;;;;;;4978052;28;20633;-88
2021/04/07 01:23:48;;;;;;;11.98;9.35;;;1.20;68.50;;;;;;4976238;28;20629;-88
2021/04/07 01:26:17;;;;;;;8.90;7.85;;;1.20;70.30;;;;;;4981032;28;20293;-89
2021/04/07 01:28:43;;;;;;;9.35;8.43;;;2.40;70.50;;;;;;4977551;28;20262;-88
2021/04/07 01:31:10;;;;;;;12.27;8.18;;;2.20;71.50;;;;;;4981294;28;20233;-88
2021/04/07 01:33:36;;;;;;;14.45;8.90;;;2.10;70.40;;;;;;4984479;28;20181;-88
2021/04/07 01:36:02;;;;;;;18.45;8.65;;;1.10;71.90;;;;;;4984352;28;20625;-88
2021/04/07 01:38:28;;;;;;;14.25;9.18;;;1.20;68.40;;;;;;4996099;28;20174;-89
2021/04/07 01:40:55;;;;;;;21.63;9.77;;;1.20;68.90;;;;;;5012751;28;20182;-89
2021/04/07 01:43:22;;;;;;;12.07;8.98;;;0.80;68.50;;;;;;4994463;28;20213;-89
2021/04/07 01:45:49;;;;;;;15.90;7.00;;;0.30;67.40;;;;;;4983665;28;20744;-89
2021/04/07 01:48:17;;;;;;;12.65;6.63;;;2.80;70.60;;;;;;4978875;28;20561;-89
2021/04/07 01:50:45;;;;;;;20.45;7.80;;;0.40;67.40;;;;;;4978840;28;20254;-88
2021/04/07 01:53:17;;;;;;;12.02;7.25;;;1.20;69.80;;;;;;5004233;28;20212;-88
2021/04/07 01:55:43;;;;;;;10.25;8.32;;;1.10;68.70;;;;;;4990317;28;20167;-88
2021/04/07 01:58:09;;;;;;;10.53;7.53;;;2.10;70.80;;;;;;4988691;28;20192;-87
2021/04/07 02:00:34;;;;;;;10.10;7.43;;;0.80;69.80;;;;;;4977157;28;20245;-88
2021/04/07 02:03:02;;;;;;;14.37;8.90;;;0.40;69.10;;;;;;4976428;28;20182;-88
2021/04/07 02:05:28;;;;;;;12.73;9.55;;;1.00;69.80;;;;;;4978789;28;20577;-89
2021/04/07 02:07:54;;;;;;;11.68;8.65;;;1.10;68.50;;;;;;4978939;28;20185;-89
2021/04/07 02:10:20;;;;;;;14.17;11.40;;;0.50;67.50;;;;;;4975148;28;20171;-88
2021/04/07 02:12:52;;;;;;;13.23;11.40;;;0.70;69.70;;;;;;4977699;28;20198;-87
2021/04/07 02:15:24;;;;;;;13.48;11.43;;;0.60;68.60;;;;;;4982468;28;20429;-87
2021/04/07 02:17:50;;;;;;;14.38;11.45;;;0.90;68.80;;;;;;4966347;28;20245;-88
2021/04/07 02:20:17;;;;;;;18.33;14.35;;;0.90;68.80;;;;;;4983406;28;20181;-88
2021/04/07 02:22:43;;;;;;;17.60;11.75;;;1.00;69.30;;;;;;4981058;28;20261;-90
2021/04/07 02:25:10;;;;;;;16.63;12.85;;;2.10;71.60;;;;;;4979405;28;20232;-88
2021/04/07 02:27:36;;;;;;;17.17;13.90;;;1.10;70.00;;;;;;4978366;28;20170;-89
2021/04/07 02:30:05;;;;;;;18.77;14.55;;;0.80;69.60;;;;;;4979878;28;20652;-89
2021/04/07 02:32:31;;;;;;;16.50;13.98;;;1.10;70.10;;;;;;4980939;28;20178;-90
2021/04/07 02:34:57;;;;;;;19.90;15.43;;;0.50;68.60;;;;;;4980388;28;20219;-89
2021/04/07 02:37:22;;;;;;;17.03;15.30;;;0.80;69.20;;;;;;4978698;28;20547;-90
2021/04/07 02:39:48;;;;;;;19.00;12.90;;;2.80;72.50;;;;;;4996251;28;20174;-89
2021/04/07 02:42:15;;;;;;;19.80;14.77;;;1.00;69.50;;;;;;4981154;28;20625;-89
2021/04/07 02:44:41;;;;;;;20.58;16.40;;;0.40;68.50;;;;;;4976533;28;20174;-89
2021/04/07 02:47:07;;;;;;;22.97;14.73;;;1.10;70.00;;;;;;4977654;28;20213;-88
2021/04/07 02:49:39;;;;;;;20.50;15.30;;;1.20;69.70;;;;;;4984192;28;20162;-87
2021/04/07 02:52:06;;;;;;;14.27;12.25;;;1.20;71.80;;;;;;4981083;28;20269;-89
2021/04/07 02:54:32;;;;;;;20.23;15.32;;;;;;;;;;4976674;28;20174;-89
2021/04/07 02:56:58;;;;;;;17.48;12.75;;;;;;;;;;4979542;28;20257;-88
2021/04/07 02:59:24;;;;;;;25.98;15.98;;;;;;;;;;4977856;28;20193;-88
2021/04/07 03:01:50;;;;;;;21.37;14.50;;;;;;;;;;4978507;28;20174;-89
2021/04/07 03:04:16;;;;;;;22.50;18.13;;;;;;;;;;4979636;28;20388;-87
2021/04/07 03:06:42;;;;;;;27.35;17.35;;;;;;;;;;4979638;28;20451;-89
2021/04/07 03:09:09;;;;;;;22.30;16.92;;;;;;;;;;4980322;28;20724;-88
2021/04/07 03:11:35;;;;;;;27.77;17.73;;;1.10;69.20;;;;;;4978658;28;20174;-89
2021/04/07 03:14:01;;;;;;;26.07;18.90;;;0.80;70.00;;;;;;4995075;28;20166;-89
2021/04/07 03:16:27;;;;;;;20.05;14.65;;;;;;;;;;4978353;28;20167;-88
2021/04/07 03:18:53;;;;;;;22.43;16.07;;;;;;;;;;4977496;28;20253;-88
2021/04/07 03:21:19;;;;;;;18.50;14.30;;;;;;;;;;4978316;28;20394;-89
2021/04/07 03:23:45;;;;;;;21.23;16.08;;;;;;;;;;4977185;28;20430;-89
2021/04/07 03:26:11;;;;;;;13.90;10.50;;;;;;;;;;4977584;28;20265;-87
2021/04/07 03:28:37;;;;;;;18.67;14.50;;;1.20;96.10;;;;;;4981230;28;20413;-88
2021/04/07 03:31:03;;;;;;;20.00;14.47;;;;;;;;;;4999876;28;20784;-87
2021/04/07 03:33:33;;;;;;;20.83;16.50;;;1.20;70.50;;;;;;4980131;28;20181;-88
2021/04/07 03:35:59;;;;;;;24.27;15.65;;;1.00;75.10;;;;;;4978073;28;20261;-88
2021/04/07 03:38:25;;;;;;;24.83;17.08;;;4.80;80.30;;;;;;4982404;28;20181;-89
2021/04/07 03:40:51;;;;;;;25.38;19.17;;;0.70;75.30;;;;;;4993035;28;20174;-89
2021/04/07 03:43:19;;;;;;;28.77;20.03;;;1.10;73.10;;;;;;4980834;28;20176;-89
2021/04/07 03:45:46;;;;;;;21.75;15.30;;;1.20;72.90;;;;;;4982776;28;20465;-89
2021/04/07 03:48:14;;;;;;;20.92;17.33;;;1.00;73.80;;;;;;4977685;28;20193;-89
2021/04/07 03:50:41;;;;;;;25.83;16.95;;;0.80;73.50;;;;;;4979137;28;20254;-89
2021/04/07 03:53:08;;;;;;;20.65;17.80;;;3.40;76.90;;;;;;4977442;28;20178;-88
2021/04/07 03:55:34;;;;;;;13.85;11.25;;;;;;;;;;4980750;28;20178;-88
2021/04/07 03:58:01;;;;;;;17.42;14.00;;;;;;;;;;4983737;28;20220;-87
2021/04/07 04:00:27;;;;;;;15.88;13.13;;;;;;;;;;4982157;28;20181;-89
2021/04/07 04:02:53;;;;;;;14.20;12.73;;;1.20;80.40;;;;;;4980687;28;20174;-88
2021/04/07 04:05:19;;;;;;;12.47;8.47;;;;;;;;;;4981109;28;20234;-85
2021/04/07 04:07:45;;;;;;;14.73;11.63;;;1.20;72.30;;;;;;4983276;28;20174;-89
2021/04/07 04:10:12;;;;;;;17.00;11.33;;;1.00;79.30;;;;;;4982291;28;20405;-89
2021/04/07 04:12:38;;;;;;;13.77;11.75;;;;;;;;;;4982109;28;20204;-88
2021/04/07 04:15:09;;;;;;;14.98;10.52;;;1.20;78.40;;;;;;4988649;28;20173;-90
2021/04/07 04:17:35;;;;;;;18.13;13.00;;;;;;;;;;4982120;28;20177;-90
2021/04/07 04:20:00;;;;;;;20.63;14.53;;;;;;;;;;4979592;28;20178;-89
2021/04/07 04:22:26;;;;;;;15.80;12.40;;;;;;;;;;4983421;28;20429;-88
2021/04/07 04:24:52;;;;;;;20.40;13.30;;;;;;;;;;4981386;28;20425;-89
2021/04/07 04:27:18;;;;;;;24.50;15.20;;;;;;;;;;4981593;28;20560;-89
2021/04/07 04:29:47;;;;;;;17.80;12.30;;;1.20;79.20;;;;;;4981464;28;20577;-89
2021/04/07 04:32:17;;;;;;;24.33;14.80;;;;;;;;;;4983418;28;20751;-88
2021/04/07 04:34:48;;;;;;;17.17;11.63;;;1.20;72.80;;;;;;4987014;28;20178;-89
2021/04/07 04:37:14;;;;;;;21.45;13.10;;;;;;;;;;4986580;28;20233;-89
2021/04/07 04:39:40;;;;;;;18.67;13.57;;;;;;;;;;4987366;28;20258;-85
2021/04/07 04:42:06;;;;;;;21.70;14.43;;;;;;;;;;4986599;28;20181;-89
2021/04/07 04:44:32;;;;;;;21.80;13.35;;;;;;;;;;4981976;28;20425;-89
2021/04/07 04:46:58;;;;;;;20.23;13.70;;;;;;;;;;4988648;28;20244;-89
2021/04/07 04:49:24;;;;;;;14.68;10.95;;;;;;;;;;4989426;28;20209;-88
2021/04/07 04:51:50;;;;;;;18.75;12.95;;;;;;;;;;4991132;28;20189;-87
2021/04/07 04:54:17;;;;;;;19.90;13.95;;;;;;;;;;4991744;28;20174;-88
2021/04/07 04:56:43;;;;;;;16.75;10.57;;;;;;;;;;4989012;28;20245;-88
2021/04/07 04:59:10;;;;;;;16.13;12.55;;;;;;;;;;4986599;28;20213;-88
2021/04/07 05:01:36;;;;;;;18.75;12.80;;;;;;;;;;4988787;28;20178;-89
2021/04/07 05:04:05;;;;;;;17.40;12.50;;;1.20;75.40;;;;;;4989892;28;20201;-88
2021/04/07 05:06:39;;;;;;;18.52;9.75;;;1.10;74.40;;;;;;4989379;28;20532;-88
2021/04/07 05:09:12;;;;;;;20.77;13.10;;;1.10;74.50;;;;;;4992376;28;20184;-87
2021/04/07 05:11:42;;;;;;;17.10;9.90;;;1.10;75.10;;;;;;4994094;28;20181;-88
2021/04/07 05:14:11;;;;;;;18.58;11.93;;;1.00;75.40;;;;;;4984086;28;20218;-88
2021/04/07 05:19:14;;;;;;;14.27;11.40;;;;;;;;;;4607242;26;10001919;-87
2021/04/07 05:21:42;;;;;;;17.08;12.20;;;1.00;79.80;;;;;;4973339;28;20185;-87
2021/04/07 05:24:08;;;;;;;14.35;10.98;;;;;;;;;;4976214;28;20159;-88
2021/04/07 05:26:35;;;;;;;20.00;13.00;;;;;;;;;;4974991;28;20218;-88
2021/04/07 05:29:01;;;;;;;18.60;13.50;;;;;;;;;;4956781;29;20163;-89
2021/04/07 05:31:27;;;;;;;20.52;12.35;;;;;;;;;;5201179;23;20225;-87
2021/04/07 05:33:53;;;;;;;21.70;12.07;;;;;;;;;;5191382;22;20323;-86
2021/04/07 05:39:01;;;;;;;21.33;12.98;;;;;;;;;;5050081;22;20489;-86
2021/04/07 05:41:30;;;;;;;16.65;12.07;;;;;;;;;;4991685;28;20209;-87
2021/04/07 05:44:06;;;;;;;15.15;9.70;;;;;;;;;;4996757;28;20183;-84
2021/04/07 05:49:07;;;;;;;16.05;11.15;;;;;;;;;;5144754;22;20244;-89
2021/04/07 05:51:34;;;;;;;24.27;15.02;;;;;;;;;;4999072;28;20170;-85
2021/04/07 05:56:36;;;;;;;19.17;12.00;;;;;;;;;;5417001;22;20228;-86
2021/04/07 06:01:32;;;;;;;28.20;16.92;;;;;;;;;;4999256;28;20224;-87
2021/04/07 06:09:37;;;;;;;12.90;9.20;;;;;;;;;;3126653;26;20291;-85
2021/04/07 06:14:46;;;;;;;23.73;15.13;;;;;;;;;;5383772;22;20323;-87
2021/04/07 06:17:12;;;;;;;23.80;16.15;;;;;;;;;;5279976;22;20998;-85
2021/04/07 06:22:17;;;;;;;22.60;15.00;;;1.00;83.90;;;;;;5284595;22;20243;-84
2021/04/07 06:24:42;;;;;;;17.08;12.57;;;;;;;;;;5073473;22;20213;-86
2021/04/07 06:29:53;;;;;;;22.75;14.30;;;;;;;;;;5043649;22;20676;-86
2021/04/07 06:32:19;;;;;;;14.75;11.55;;;;;;;;;;5037858;28;20252;-85
2021/04/07 06:34:45;;;;;;;16.58;12.13;;;;;;;;;;5296897;22;20212;-88
2021/04/07 06:37:11;;;;;;;9.37;8.23;;;;;;;;;;4896180;22;10002167;-86
2021/04/07 06:48:12;;;;;;;14.60;12.13;;;1.10;90.10;;;;;;5427745;22;20237;-88
2021/04/07 06:50:45;;;;;;;10.13;7.07;;;;;;;;;;5018238;28;20165;-85
2021/04/07 07:00:58;;;;;;;8.45;7.65;;;;;;;;;;5714000;22;20224;-86
2021/04/07 07:03:24;;;;;;;10.93;9.20;;;;;;;;;;5311195;22;20231;-87
2021/04/07 07:11:31;;;;;;;13.65;11.95;;;;;;;;;;5276449;22;20289;-89
2021/04/07 07:19:32;;;;;;;7.25;6.65;;;1.30;83.50;;;;;;5301089;22;20250;-86
2021/04/07 07:25:10;;;;;;;8.50;7.78;;;1.20;82.90;;;;;;5091679;22;20228;-87
2021/04/07 07:27:55;;;;;;;12.88;11.02;;;1.30;83.30;;;;;;5160802;22;20225;-89
2021/04/07 07:30:21;;;;;;;8.20;7.50;;;;;;;;;;5014309;28;20161;-86
2021/04/07 07:32:47;;;;;;;8.75;7.30;;;;;;;;;;5483692;22;20240;-85
2021/04/07 07:35:15;;;;;;;8.53;7.77;;;1.30;82.90;;;;;;5037434;28;20179;-85
2021/04/07 07:37:44;;;;;;;11.15;9.98;;;1.30;83.90;;;;;;5369123;22;20469;-87
2021/04/07 07:45:39;;;;;;;9.52;8.82;;;;;;;;;;5228619;22;20216;-85
2021/04/07 07:50:46;;;;;;;6.60;6.30;;;1.30;81.50;;;;;;5278812;22;20247;-88
2021/04/07 07:53:21;;;;;;;6.63;6.22;;;1.30;82.90;;;;;;5001148;28;20249;-86
2021/04/07 08:04:07;;;;;;;7.03;6.63;;;;;;;;;;5691932;22;20500;-84
2021/04/07 08:06:33;;;;;;;6.25;5.85;;;;;;;;;;5019122;28;20219;-87
2021/04/07 08:09:06;;;;;;;3.20;3.00;;;;;;;;;;5174056;22;20289;-88
2021/04/07 08:27:29;;;;;;;10.40;9.55;;;;;;;;;;5098353;22;20239;-84
2021/04/07 08:35:26;;;;;;;6.60;4.88;;;;;;;;;;4955765;28;20256;-90
2021/04/07 08:40:44;;;;;;;7.38;6.57;;;1.70;87.90;;;;;;5104504;22;20589;-86
2021/04/07 08:46:23;;;;;;;7.68;7.03;;;1.80;82.50;;;;;;5120997;22;20220;-89
2021/04/07 08:51:46;;;;;;;9.63;8.82;;;1.70;76.90;;;;;;5225045;22;20679;-89
2021/04/07 08:54:13;;;;;;;9.10;8.20;;;1.90;81.00;;;;;;5031890;28;20215;-89
2021/04/07 08:56:42;;;;;;;9.07;8.18;;;;;;;;;;5033123;28;20176;-87
2021/04/07 08:59:23;;;;;;;9.10;8.30;;;2.10;77.50;;;;;;5032056;28;20180;-90
2021/04/07 09:05:04;;;;;;;11.77;10.60;;;2.10;85.30;;;;;;5495267;22;20272;-87
2021/04/07 09:07:58;;;;;;;12.65;11.55;;;2.10;85.30;;;;;;5336679;23;20734;-86
2021/04/07 09:10:26;;;;;;;10.50;9.52;;;2.20;82.30;;;;;;5030168;28;20197;-88
2021/04/07 09:12:55;;;;;;;10.90;9.75;;;2.30;82.70;;;;;;5032199;28;20172;-88
2021/04/07 09:15:25;;;;;;;13.57;12.40;;;2.50;85.10;;;;;;5031546;28;20171;-86
2021/04/07 09:17:58;;;;;;;10.20;9.20;;;2.40;97.40;;;;;;5023263;28;20227;-85
2021/04/07 09:20:44;;;;;;;11.52;9.85;;;4.20;87.10;;;;;;5021494;28;20229;-85
2021/04/07 09:23:17;;;;;;;11.20;10.20;;;2.80;98.30;;;;;;5023758;28;20164;-87
2021/04/07 09:25:54;;;;;;;12.80;11.57;;;2.70;96.50;;;;;;5026364;28;20261;-87
2021/04/07 09:28:48;;;;;;;14.38;12.55;;;2.70;78.20;;;;;;5031985;28;20168;-87
2021/04/07 09:31:34;;;;;;;14.68;13.20;;;2.60;97.00;;;;;;5027497;28;20687;-86
2021/04/07 09:34:00;;;;;;;15.63;13.73;;;2.50;74.30;;;;;;5029398;28;20169;-85
2021/04/07 09:36:28;;;;;;;11.50;9.33;;;2.70;95.10;;;;;;5027538;28;20272;-85
2021/04/07 09:38:55;;;;;;;18.58;16.00;;;2.60;77.80;;;;;;5028947;28;20188;-88
2021/04/07 09:41:23;;;;;;;15.98;13.57;;;2.70;77.10;;;;;;5142350;22;20296;-89
2021/04/07 09:46:28;;;;;;;13.90;12.48;;;2.70;78.50;;;;;;4132426;26;20243;-91
2021/04/07 09:48:57;;;;;;;13.68;12.25;;;2.80;74.70;;;;;;5005736;28;20170;-90
2021/04/07 09:51:48;;;;;;;14.20;11.00;;;2.70;95.60;;;;;;4995165;28;20181;-90
2021/04/07 09:54:35;;;;;;;14.05;12.65;;;2.80;95.40;;;;;;5003943;28;20204;-89
2021/04/07 09:57:12;;;;;;;13.88;12.13;;;2.70;74.10;;;;;;5164043;22;20300;-88
2021/04/07 09:59:49;;;;;;;14.70;13.35;;;1.50;72.80;;;;;;5314117;22;20259;-89
2021/04/07 10:02:29;;;;;;;13.52;12.25;;;2.80;74.80;;;;;;5032327;28;20583;-89
2021/04/07 10:04:59;;;;;;;12.63;11.10;;;2.90;76.90;;;;;;5032688;28;20169;-90
2021/04/07 10:07:27;;;;;;;16.23;13.75;;;2.80;76.60;;;;;;5020972;28;20232;-85
2021/04/07 10:09:55;;;;;;;14.65;13.05;;;2.80;76.80;;;;;;5015521;28;20272;-88
2021/04/07 10:12:22;;;;;;;15.38;13.77;;;2.70;77.20;;;;;;5017191;28;20172;-88
2021/04/07 10:14:56;;;;;;;13.70;12.27;;;3.10;79.00;;;;;;5017774;28;20173;-87
2021/04/07 10:17:30;;;;;;;14.02;12.10;;;2.70;78.00;;;;;;5022179;28;20168;-87
2021/04/07 10:20:05;;;;;;;13.38;11.88;;;2.90;77.30;;;;;;5034503;28;20211;-89
2021/04/07 10:22:31;;;;;;;15.57;12.23;;;2.80;96.50;;;;;;5032069;28;20235;-89
2021/04/07 10:25:01;;;;;;;11.82;10.80;;;2.70;77.20;;;;;;5034235;28;20176;-88
2021/04/07 10:27:27;;;;;;;13.68;12.27;;;2.50;76.70;;;;;;5022335;28;20220;-89
2021/04/07 10:30:13;;;;;;;13.00;11.70;;;2.60;78.50;;;;;;5019835;28;20198;-90
2021/04/07 10:32:47;;;;;;;14.15;12.85;;;2.90;76.10;;;;;;5011202;28;20184;-88
2021/04/07 10:35:25;;;;;;;16.73;12.32;;;3.10;97.80;;;;;;5018767;28;20181;-85
2021/04/07 10:38:12;;;;;;;16.38;14.68;;;3.00;94.60;;;;;;5010898;28;20213;-91
2021/04/07 10:40:58;;;;;;;19.17;17.15;;;3.10;94.90;;;;;;5030981;28;20243;-87
2021/04/07 10:43:32;;;;;;;17.40;15.35;;;3.20;76.80;;;;;;5014193;28;20249;-89
2021/04/07 10:46:09;;;;;;;17.27;14.85;;;3.40;75.90;;;;;;5216351;23;20232;-88
2021/04/07 10:48:37;;;;;;;17.05;15.43;;;3.60;76.80;;;;;;5034231;28;20266;-88
2021/04/07 10:51:03;;;;;;;15.98;14.27;;;;;;;;;;5031971;28;20176;-86
2021/04/07 10:53:38;;;;;;;15.80;14.23;;;3.80;74.80;;;;;;5034588;28;20164;-90
2021/04/07 10:56:24;;;;;;;13.23;12.05;;;4.30;74.40;;;;;;5034162;28;20176;-83
2021/04/07 10:59:00;;;;;;;11.43;10.38;;;4.50;72.80;;;;;;5034200;28;20177;-90
2021/04/07 11:01:33;;;;;;;12.38;11.27;;;4.30;72.60;;;;;;5019406;28;20156;-87
2021/04/07 11:04:50;;;;;;;11.05;10.05;;;4.30;72.90;;;;;;5034576;28;20176;-89
2021/04/07 11:07:23;;;;;;;14.40;12.57;;;;;;;;;;5034160;28;20242;-85
2021/04/07 11:09:50;;;;;;;13.35;11.98;;;4.40;74.40;;;;;;5100702;22;20212;-92
2021/04/07 11:12:21;;;;;;;15.55;14.15;;;5.40;78.70;;;;;;5035547;28;20180;-86
2021/04/07 11:17:29;;;;;;;17.15;15.45;;;;;;;;;;5242231;22;20211;-91
2021/04/07 11:20:14;;;;;;;16.27;13.18;;;4.70;75.60;;;;;;5037091;28;20200;-88
2021/04/07 11:22:43;;;;;;;13.52;12.20;;;4.90;76.00;;;;;;5036705;28;20167;-86
2021/04/07 11:25:10;;;;;;;12.02;10.82;;;6.20;81.50;;;;;;5022343;28;20161;-87
2021/04/07 11:27:36;;;;;;;10.27;8.60;;;;;;;;;;5019070;28;20258;-87
2021/04/07 11:30:43;;;;;;;7.50;6.90;;;5.10;75.70;;;;;;5022967;28;20193;-88
2021/04/07 11:33:11;;;;;;;8.98;6.70;;;;;;;;;;5179587;22;20506;-88
2021/04/07 11:36:21;;;;;;;8.18;7.47;;;5.10;76.10;;;;;;5056375;28;20199;-89
2021/04/07 11:38:58;;;;;;;4.30;4.03;;;5.00;77.10;;;;;;5054556;28;20162;-86
2021/04/07 11:44:28;;;;;;;7.95;6.63;;;5.00;76.10;;;;;;5054725;28;20176;-92
2021/04/07 11:49:30;;;;;;;4.63;4.18;;;5.10;75.90;;;;;;5120878;22;20206;-88
2021/04/07 11:51:57;;;;;;;6.07;5.53;;;5.20;74.20;;;;;;5199041;22;20251;-86
2021/04/07 11:54:23;;;;;;;4.50;3.63;;;;;;;;;;5034611;28;20567;-89
2021/04/07 11:59:25;;;;;;;8.75;4.38;;;6.00;69.70;;;;;;5257009;22;20695;-87
2021/04/07 12:01:58;;;;;;;2.50;2.30;;;6.70;67.20;;;;;;5017982;28;20168;-88
2021/04/07 12:04:28;;;;;;;4.78;2.47;;;;;;;;;;5015937;28;20638;-86
2021/04/07 12:06:57;;;;;;;3.72;2.13;;;7.20;65.00;;;;;;5014340;28;20218;-89
2021/04/07 12:09:23;;;;;;;2.85;1.55;;;7.50;65.00;;;;;;5018885;28;20223;-86
2021/04/07 12:11:48;;;;;;;1.80;1.70;;;8.90;66.20;;;;;;5017025;28;20604;-88
2021/04/07 12:14:14;;;;;;;3.67;1.53;;;8.10;61.50;;;;;;5015143;28;20639;-89
2021/04/07 12:16:43;;;;;;;4.80;2.93;;;7.90;60.20;;;;;;5015233;28;20204;-88
2021/04/07 12:19:13;;;;;;;2.80;1.55;;;7.70;61.30;;;;;;5032305;28;20177;-89
2021/04/07 12:22:00;;;;;;;7.63;2.17;;;;;;;;;;5028316;28;20228;-90
2021/04/07 12:24:26;;;;;;;5.53;1.90;;;;;;;;;;5081318;23;20284;-89
2021/04/07 12:26:59;;;;;;;6.90;2.35;;;6.70;64.70;;;;;;5032886;28;20212;-92
2021/04/07 12:29:25;;;;;;;3.50;3.20;;;6.60;91.20;;;;;;5123510;22;20221;-89
2021/04/07 12:31:54;;;;;;;13.30;5.57;;;6.10;66.90;;;;;;5032539;28;20199;-87
2021/04/07 12:34:20;;;;;;;12.98;4.35;;;;;;;;;;5032552;28;20247;-87
2021/04/07 12:36:46;;;;;;;10.20;4.20;;;;;;;;;;5032546;28;20165;-87
2021/04/07 12:39:13;;;;;;;12.35;5.97;;;6.20;71.00;;;;;;5028658;28;20185;-89
2021/04/07 12:44:18;;;;;;;7.03;2.45;;;6.00;92.20;;;;;;5029437;28;20183;-89
2021/04/07 12:46:44;;;;;;;9.48;3.00;;;;;;;;;;5032851;28;20204;-86
2021/04/07 12:49:11;;;;;;;12.10;4.15;;;5.90;67.80;;;;;;5030236;28;20215;-86
2021/04/07 12:51:41;;;;;;;7.70;3.83;;;;;;;;;;5029952;28;20184;-90
2021/04/07 12:54:10;;;;;;;9.15;2.95;;;;;;;;;;5028753;28;20228;-88
2021/04/07 12:56:39;;;;;;;13.75;3.30;;;;;;;;;;5023283;28;20176;-89
2021/04/07 12:59:11;;;;;;;14.73;3.50;;;;;;;;;;5026302;28;20194;-88
2021/04/07 13:01:43;;;;;;;8.45;3.25;;;6.10;68.80;;;;;;5030516;28;20228;-88
2021/04/07 13:04:41;;;;;;;10.90;2.83;;;5.90;92.30;;;;;;5028261;28;20311;-90
2021/04/07 13:07:08;;;;;;;6.00;2.60;;;;;;;;;;5010029;28;20216;-87
2021/04/07 13:09:33;;;;;;;6.47;2.90;;;6.20;92.20;;;;;;5001277;28;20807;-88
2021/04/07 13:11:59;;;;;;;7.87;3.20;;;5.80;68.50;;;;;;5025209;28;20187;-88
2021/04/07 13:17:17;;;;;;;12.23;4.70;;;;;;;;;;4686632;23;10001372;-86
2021/04/07 13:19:51;;;;;;;10.13;4.25;;;6.30;64.50;;;;;;5063169;23;20255;-90
2021/04/07 13:22:18;;;;;;;7.00;3.50;;;;;;;;;;5009793;28;20533;-88
2021/04/07 13:24:44;;;;;;;8.35;4.03;;;;;;;;;;5009910;28;20435;-86
2021/04/07 13:27:14;;;;;;;7.35;3.28;;;7.20;61.60;;;;;;5012056;28;20237;-86
2021/04/07 13:30:05;;;;;;;7.85;3.90;;;7.70;85.50;;;;;;4995493;28;20256;-90
2021/04/07 13:32:31;;;;;;;6.73;3.00;;;;;;;;;;5008307;28;20241;-89
2021/04/07 13:35:04;;;;;;;7.88;3.05;;;8.00;57.60;;;;;;5000698;28;20491;-87
2021/04/07 13:40:07;;;;;;;11.98;3.20;;;8.20;58.30;;;;;;4997161;28;20177;-88
2021/04/07 13:42:53;;;;;;;7.53;3.25;;;;;;;;;;4995451;28;20216;-88
2021/04/07 13:45:27;;;;;;;6.38;2.88;;;8.20;57.60;;;;;;4999428;28;20170;-89
2021/04/07 13:48:03;;;;;;;8.73;3.33;;;8.70;58.30;;;;;;4999035;28;20340;-89
2021/04/07 13:50:29;;;;;;;8.68;3.20;;;;;;;;;;5005439;28;20168;-89
2021/04/07 13:52:55;;;;;;;6.83;3.40;;;;;;;;;;5002957;28;20240;-88
2021/04/07 13:55:24;;;;;;;23.50;4.32;;;7.80;58.20;;;;;;5002700;28;20419;-89
2021/04/07 13:57:51;;;;;;;3.50;3.00;;;7.80;58.50;;;;;;5003822;28;20178;-88
2021/04/07 14:00:20;;;;;;;8.30;3.42;;;8.60;55.80;;;;;;4999762;28;20412;-89
2021/04/07 14:02:49;;;;;;;7.88;2.35;;;8.80;75.50;;;;;;5008033;28;20233;-90
2021/04/07 14:05:17;;;;;;;5.32;2.85;;;9.00;58.80;;;;;;5014507;28;20166;-87
2021/04/07 14:07:49;;;;;;;5.97;2.55;;;8.20;53.80;;;;;;5162668;22;20322;-90
2021/04/07 14:10:18;;;;;;;4.63;2.20;;;8.10;55.10;;;;;;5218785;22;20229;-87
2021/04/07 14:12:55;;;;;;;3.13;2.97;;;;;;;;;;4996875;28;20429;-89
2021/04/07 14:15:30;;;;;;;4.57;3.25;;;7.60;77.80;;;;;;4995577;28;20189;-90
2021/04/07 14:17:56;;;;;;;5.03;3.40;;;;;;;;;;4984918;28;20182;-90
2021/04/07 14:20:23;;;;;;;13.90;3.00;;;7.60;57.00;;;;;;4985142;28;20185;-89
2021/04/07 14:23:00;;;;;;;7.63;3.10;;;9.10;60.80;;;;;;4988701;28;20416;-92
2021/04/07 14:28:09;;;;;;;5.60;2.47;;;6.40;57.00;;;;;;2644179;22;20237;-91
2021/04/07 14:30:47;;;;;;;8.90;3.47;;;5.80;57.80;;;;;;5085889;22;20224;-90
2021/04/07 14:33:21;;;;;;;6.93;2.60;;;5.40;59.00;;;;;;5272399;22;20317;-89
2021/04/07 14:35:48;;;;;;;2.30;2.10;;;5.10;62.90;;;;;;5123244;22;20237;-88
2021/04/07 14:38:20;;;;;;;3.88;2.78;;;4.90;61.00;;;;;;5134093;22;20287;-90
2021/04/07 14:40:47;;;;;;;6.63;3.15;;;4.60;62.10;;;;;;5036247;28;20219;-90
2021/04/07 14:43:17;;;;;;;4.75;2.40;;;4.40;65.20;;;;;;5034039;28;20331;-88
2021/04/07 14:45:46;;;;;;;8.48;4.00;;;;;;;;;;5036303;28;20187;-86
2021/04/07 14:48:19;;;;;;;8.02;3.95;;;4.20;68.60;;;;;;5035449;28;20169;-88
2021/04/07 14:50:50;;;;;;;11.65;3.75;;;4.30;90.80;;;;;;5032599;28;20175;-88
2021/04/07 14:53:21;;;;;;;3.05;2.55;;;;;;;;;;5169594;22;20313;-88
2021/04/07 14:55:49;;;;;;;7.93;3.10;;;4.70;68.60;;;;;;5006496;28;20173;-87
2021/04/07 14:58:16;;;;;;;8.55;3.85;;;4.50;68.80;;;;;;4995677;28;20269;-86
2021/04/07 15:00:42;;;;;;;8.32;2.90;;;5.50;69.60;;;;;;4997151;28;20173;-87
2021/04/07 15:03:08;;;;;;;4.35;2.55;;;;;;;;;;4997098;28;20162;-87
2021/04/07 15:05:34;;;;;;;9.03;3.53;;;;;;;;;;4996219;28;20169;-88
2021/04/07 15:08:00;;;;;;;6.95;2.60;;;5.80;64.80;;;;;;4997740;28;20419;-87
2021/04/07 15:10:27;;;;;;;6.03;2.67;;;;;;;;;;4995906;28;20170;-85
2021/04/07 15:12:53;;;;;;;6.68;3.47;;;5.90;64.00;;;;;;4996262;28;20166;-87
2021/04/07 15:15:19;;;;;;;9.53;5.17;;;;;;;;;;4999292;28;20198;-87
2021/04/07 15:17:45;;;;;;;9.02;5.60;;;6.30;89.80;;;;;;5000181;28;20401;-87
2021/04/07 15:20:13;;;;;;;9.53;2.57;;;6.00;65.10;;;;;;4996175;28;20176;-87
2021/04/07 15:22:39;;;;;;;5.97;2.92;;;;;;;;;;4995204;28;20420;-87
2021/04/07 15:28:52;;;;;;;6.43;2.35;;;6.50;60.50;;;;;;4973628;28;20196;-86
2021/04/07 15:30:55;;;;;;;4.88;2.75;;;6.50;62.20;;;;;;4988674;28;20189;-88
2021/04/07 15:33:21;;;;;;;2.50;2.07;;;6.60;60.40;;;;;;4995776;28;20176;-86
2021/04/07 15:35:47;;;;;;;11.50;3.10;;;6.40;58.60;;;;;;4995655;28;20404;-85
2021/04/07 15:38:12;;;;;;;13.73;5.37;;;6.30;58.40;;;;;;4995573;28;20474;-85
2021/04/07 15:40:38;;;;;;;6.87;2.27;;;6.30;58.70;;;;;;4994930;28;20539;-86